createdAt,value
2019-05-28T00:08:49.737Z,12.8
2019-05-28T00:18:49.003Z,12.8
2019-05-28T00:28:48.180Z,12.7
2019-05-28T00:38:47.389Z,12.6
2019-05-28T00:48:46.654Z,12.5
2019-05-28T00:58:45.828Z,12.5
2019-05-28T01:08:45.047Z,12.9
2019-05-28T01:18:44.259Z,13.1
2019-05-28T01:28:43.471Z,13.1
2019-05-28T01:38:42.711Z,13.1
2019-05-28T01:48:41.898Z,13
2019-05-28T01:58:41.113Z,12.6
2019-05-28T02:08:40.324Z,13.1
2019-05-28T02:18:39.542Z,12.4
2019-05-28T02:28:38.762Z,12.7
2019-05-28T02:38:38.031Z,12.6
2019-05-28T02:48:37.192Z,12.5
2019-05-28T02:58:36.418Z,12.6
2019-05-28T03:08:35.634Z,12.6
2019-05-28T03:18:34.844Z,12.7
2019-05-28T03:28:34.062Z,12.8
2019-05-28T03:38:33.279Z,13.1
2019-05-28T03:48:32.505Z,12.8
2019-05-28T03:58:31.712Z,13.3
2019-05-28T04:08:30.928Z,13
2019-05-28T04:18:30.146Z,13
2019-05-28T04:28:29.364Z,13.1
2019-05-28T04:38:28.612Z,14
2019-05-28T04:48:27.808Z,14
2019-05-28T04:58:27.026Z,14.7
2019-05-28T05:08:26.288Z,13.6
2019-05-28T05:18:25.467Z,14.4
2019-05-28T05:28:24.679Z,13.8
2019-05-28T05:38:23.949Z,13.8
2019-05-28T05:48:23.128Z,14.6
2019-05-28T05:58:22.343Z,14.3
2019-05-28T06:08:21.562Z,14.2
2019-05-28T06:18:20.776Z,14.4
2019-05-28T06:28:20.046Z,14.3
2019-05-28T06:38:19.304Z,14.8
2019-05-28T06:48:18.444Z,14.7
2019-05-28T06:58:17.651Z,14.2
2019-05-28T07:08:16.871Z,13.8
2019-05-28T07:18:16.139Z,14.7
2019-05-28T07:28:15.317Z,14
2019-05-28T07:38:14.532Z,14.3
2019-05-28T07:48:13.796Z,14.7
2019-05-28T07:58:13.021Z,14.6
2019-05-28T08:08:12.184Z,14.7
2019-05-28T08:18:11.399Z,14
2019-05-28T08:28:19.635Z,14.7
2019-05-28T08:38:09.843Z,14.1
2019-05-28T08:48:09.115Z,13.8
2019-05-28T08:58:08.355Z,14.2
2019-05-28T09:08:07.557Z,14.5
2019-05-28T09:18:06.793Z,14
2019-05-28T09:28:05.935Z,13.8
2019-05-28T09:38:05.149Z,14
2019-05-28T09:48:04.368Z,14
2019-05-28T09:58:03.632Z,14.1
2019-05-28T10:08:02.859Z,13.8
2019-05-28T10:18:02.022Z,14.2
2019-05-28T10:28:01.968Z,14.2
2019-05-28T10:38:00.494Z,14.2
2019-05-28T10:47:59.680Z,14.5
2019-05-28T10:57:58.894Z,14.7
2019-05-28T11:07:58.110Z,14.2
2019-05-28T11:17:57.375Z,14.1
2019-05-28T11:27:56.544Z,14.2
2019-05-28T11:37:55.818Z,14
2019-05-28T11:47:54.992Z,14.3
2019-05-28T11:57:54.201Z,14.7
2019-05-28T12:07:53.421Z,13.5
2019-05-28T12:17:52.675Z,12.9
2019-05-28T12:27:51.864Z,14.4
2019-05-28T12:37:51.076Z,14
2019-05-28T12:48:07.062Z,14.4
2019-05-28T12:57:49.633Z,14.1
2019-05-28T13:08:06.230Z,14.7
2019-05-28T13:17:47.957Z,14.6
2019-05-28T13:27:47.177Z,14.5
2019-05-28T13:37:46.443Z,14.2
2019-05-28T13:47:45.614Z,13.8
2019-05-28T13:57:44.844Z,14.2
2019-05-28T14:07:44.045Z,14.2
2019-05-28T14:17:43.264Z,14.7
2019-05-28T14:27:42.494Z,14.2
2019-05-28T14:37:41.752Z,13.1
2019-05-28T14:47:40.921Z,12.8
2019-05-28T14:57:40.202Z,12.7
2019-05-28T15:07:39.459Z,13.4
2019-05-28T15:17:38.577Z,13
2019-05-28T15:27:37.796Z,13.3
2019-05-28T15:37:37.016Z,12.8
2019-05-28T15:47:36.291Z,12.7
2019-05-28T15:57:35.503Z,13
2019-05-28T16:07:34.673Z,12.7
2019-05-28T16:17:33.897Z,12.9
2019-05-28T16:27:33.121Z,13
2019-05-28T16:37:32.343Z,12.5
2019-05-28T16:47:31.561Z,12.5
2019-05-28T16:57:30.776Z,12.9
2019-05-28T17:07:29.999Z,13.2
2019-05-28T17:17:29.220Z,12.6
2019-05-28T17:27:28.444Z,12.5
2019-05-28T17:37:27.727Z,12.8
2019-05-28T17:47:26.900Z,12.7
2019-05-28T17:57:26.172Z,13.2
2019-05-28T18:07:25.347Z,12.6
2019-05-28T18:17:24.576Z,12.9
2019-05-28T18:27:23.805Z,12.5
2019-05-28T18:37:23.105Z,12.5
2019-05-28T18:47:22.278Z,13
2019-05-28T18:57:21.544Z,12.7
2019-05-28T19:07:20.726Z,12.7
2019-05-28T19:17:19.967Z,13
2019-05-28T19:27:19.193Z,13.2
2019-05-28T19:37:18.416Z,12.7
2019-05-28T19:47:17.646Z,12.8
2019-05-28T19:57:16.923Z,13.2
2019-05-28T20:07:16.159Z,13.2
2019-05-28T20:17:15.381Z,12.4
2019-05-28T20:27:14.555Z,13.1
2019-05-28T20:37:13.788Z,12.3
2019-05-28T20:47:13.015Z,12.5
2019-05-28T20:57:12.241Z,13.2
2019-05-28T21:09:01.129Z,12.4
2019-05-28T21:19:00.349Z,13.1
2019-05-28T21:29:00.549Z,12.4
2019-05-28T21:38:59.361Z,12.5
2019-05-28T21:48:58.580Z,12.5
2019-05-28T21:58:57.455Z,12.7
2019-05-28T22:08:57.628Z,12.8
2019-05-28T22:18:56.206Z,12.5
2019-05-28T22:28:55.355Z,12.9
2019-05-28T22:38:54.415Z,12.4
2019-05-28T22:48:53.733Z,12.5
2019-05-28T22:58:53.052Z,12.6
2019-05-28T23:08:52.323Z,13.2
2019-05-28T23:18:51.540Z,12.6
2019-05-28T23:28:50.766Z,13
2019-05-28T23:38:50.016Z,12.8
2019-05-28T23:48:49.270Z,12.6
2019-05-28T23:58:48.437Z,12.7
